AUA657 EDDS-EDDB
Flight info
| Callsign | AUA657 |
|---|---|
| Flight time | 0h 58m |
| Altitude | 37000 |
| Route | OKIBA4B/25 OKIBA N851 RIMKI Z99 LOHRE N746 TIKNI T279 TAMEB T278 KLF KLF1R |
| Aircraft | A320/M-SDE3FGHIRWY/LB1 |
Departure
| Time | 2026-05-07 19:16 |
|---|---|
| Airport | Stuttgart Airport (EDDS) |
Arrival
| Time | 2026-05-07 20:15 |
|---|---|
| Airport | Berlin Brandenburg Airport (EDDB) |
| Time | Latitude | Longitude | Altitude | Speed | Heading |
|---|---|---|---|---|---|
| 2026-05-07 18:38 | 48.68928 | 9.19583 | 1286 ft | 0 kts | 343° |
| 2026-05-07 19:00 | 48.68917 | 9.19588 | 1290 ft | 4 kts | 349° |
| 2026-05-07 19:00 | 48.68892 | 9.19593 | 1288 ft | 2 kts | 349° |
| 2026-05-07 19:01 | 48.68869 | 9.19595 | 1289 ft | 4 kts | 26° |
| 2026-05-07 19:01 | 48.68853 | 9.19569 | 1289 ft | 4 kts | 72° |
| 2026-05-07 19:01 | 48.68850 | 9.19555 | 1290 ft | 0 kts | 74° |
| 2026-05-07 19:04 | 48.68857 | 9.19591 | 1289 ft | 6 kts | 73° |
| 2026-05-07 19:04 | 48.68866 | 9.19643 | 1285 ft | 5 kts | 75° |
| 2026-05-07 19:05 | 48.68883 | 9.19730 | 1288 ft | 10 kts | 73° |
| 2026-05-07 19:05 | 48.68890 | 9.19836 | 1285 ft | 10 kts | 113° |
| 2026-05-07 19:05 | 48.68836 | 9.19886 | 1286 ft | 8 kts | 159° |
| 2026-05-07 19:05 | 48.68815 | 9.19959 | 1285 ft | 12 kts | 80° |
| 2026-05-07 19:06 | 48.68853 | 9.20106 | 1287 ft | 16 kts | 75° |
| 2026-05-07 19:06 | 48.68923 | 9.20472 | 1285 ft | 20 kts | 75° |
| 2026-05-07 19:06 | 48.68962 | 9.20682 | 1289 ft | 21 kts | 72° |
| 2026-05-07 19:07 | 48.69005 | 9.20902 | 1285 ft | 22 kts | 74° |
| 2026-05-07 19:07 | 48.69049 | 9.21132 | 1290 ft | 23 kts | 73° |
| 2026-05-07 19:07 | 48.69094 | 9.21369 | 1287 ft | 24 kts | 73° |
| 2026-05-07 19:07 | 48.69137 | 9.21615 | 1287 ft | 24 kts | 75° |
| 2026-05-07 19:08 | 48.69177 | 9.21821 | 1285 ft | 25 kts | 73° |
| 2026-05-07 19:08 | 48.69197 | 9.21923 | 1288 ft | 25 kts | 73° |
| 2026-05-07 19:08 | 48.69246 | 9.22180 | 1285 ft | 26 kts | 74° |
| 2026-05-07 19:08 | 48.69294 | 9.22443 | 1287 ft | 26 kts | 74° |
| 2026-05-07 19:09 | 48.69346 | 9.22709 | 1285 ft | 27 kts | 73° |
| 2026-05-07 19:09 | 48.69397 | 9.22979 | 1289 ft | 27 kts | 73° |
| 2026-05-07 19:09 | 48.69448 | 9.23251 | 1285 ft | 27 kts | 74° |
| 2026-05-07 19:09 | 48.69499 | 9.23520 | 1289 ft | 26 kts | 73° |
| 2026-05-07 19:10 | 48.69550 | 9.23785 | 1287 ft | 26 kts | 74° |
| 2026-05-07 19:10 | 48.69597 | 9.24027 | 1290 ft | 21 kts | 74° |
| 2026-05-07 19:10 | 48.69600 | 9.24179 | 1287 ft | 7 kts | 113° |
| 2026-05-07 19:10 | 48.69589 | 9.24211 | 1290 ft | 0 kts | 117° |
| 2026-05-07 19:12 | 48.69586 | 9.24220 | 1289 ft | 4 kts | 117° |
| 2026-05-07 19:12 | 48.69571 | 9.24263 | 1288 ft | 5 kts | 121° |
| 2026-05-07 19:13 | 48.69535 | 9.24302 | 1287 ft | 6 kts | 161° |
| 2026-05-07 19:13 | 48.69508 | 9.24313 | 1287 ft | 0 kts | 164° |
| 2026-05-07 19:14 | 48.69496 | 9.24318 | 1286 ft | 9 kts | 163° |
| 2026-05-07 19:14 | 48.69424 | 9.24326 | 1285 ft | 8 kts | 189° |
| 2026-05-07 19:15 | 48.69384 | 9.24281 | 1287 ft | 7 kts | 238° |
| 2026-05-07 19:15 | 48.69375 | 9.24241 | 1285 ft | 0 kts | 255° |
| 2026-05-07 19:15 | 48.69373 | 9.24229 | 1287 ft | 12 kts | 255° |
| 2026-05-07 19:16 | 48.69271 | 9.23686 | 1287 ft | 91 kts | 254° |
| 2026-05-07 19:16 | 48.69038 | 9.22457 | 1286 ft | 150 kts | 254° |
| 2026-05-07 19:16 | 48.68720 | 9.20774 | 1616 ft | 170 kts | 256° |
| 2026-05-07 19:16 | 48.68409 | 9.19058 | 2416 ft | 169 kts | 255° |
| 2026-05-07 19:17 | 48.68070 | 9.17299 | 2913 ft | 183 kts | 255° |
| 2026-05-07 19:17 | 48.67687 | 9.15337 | 3199 ft | 205 kts | 254° |
| 2026-05-07 19:17 | 48.67252 | 9.13148 | 3484 ft | 230 kts | 253° |
| 2026-05-07 19:17 | 48.67020 | 9.10686 | 4076 ft | 242 kts | 281° |
| 2026-05-07 19:18 | 48.67738 | 9.08396 | 4913 ft | 245 kts | 307° |
| 2026-05-07 19:18 | 48.68957 | 9.06611 | 5774 ft | 248 kts | 331° |
| 2026-05-07 19:18 | 48.70632 | 9.05698 | 6369 ft | 266 kts | 343° |
| 2026-05-07 19:18 | 48.72432 | 9.04900 | 7100 ft | 273 kts | 341° |
| 2026-05-07 19:19 | 48.74295 | 9.04230 | 7927 ft | 279 kts | 354° |
| 2026-05-07 19:19 | 48.76242 | 9.04535 | 8741 ft | 287 kts | 16° |
| 2026-05-07 19:19 | 48.78133 | 9.05574 | 9574 ft | 292 kts | 19° |
| 2026-05-07 19:19 | 48.80044 | 9.06696 | 10324 ft | 299 kts | 20° |
| 2026-05-07 19:20 | 48.82028 | 9.07888 | 10595 ft | 322 kts | 20° |
| 2026-05-07 19:20 | 48.84185 | 9.09193 | 10808 ft | 345 kts | 20° |
| 2026-05-07 19:20 | 48.86476 | 9.10574 | 11204 ft | 360 kts | 20° |
| 2026-05-07 19:20 | 48.88826 | 9.11986 | 11869 ft | 365 kts | 20° |
| 2026-05-07 19:21 | 48.91198 | 9.13406 | 12593 ft | 369 kts | 20° |
| 2026-05-07 19:21 | 48.93601 | 9.14839 | 13319 ft | 372 kts | 20° |
| 2026-05-07 19:21 | 48.96016 | 9.16278 | 14058 ft | 374 kts | 21° |
| 2026-05-07 19:21 | 48.98454 | 9.17735 | 14693 ft | 378 kts | 20° |
| 2026-05-07 19:22 | 49.00918 | 9.19215 | 15303 ft | 382 kts | 20° |
| 2026-05-07 19:22 | 49.03409 | 9.20714 | 15892 ft | 386 kts | 20° |
| 2026-05-07 19:22 | 49.05920 | 9.22227 | 16476 ft | 390 kts | 20° |
| 2026-05-07 19:22 | 49.08453 | 9.23752 | 17050 ft | 394 kts | 20° |
| 2026-05-07 19:23 | 49.11024 | 9.25297 | 17623 ft | 398 kts | 19° |
| 2026-05-07 19:23 | 49.13617 | 9.26856 | 18179 ft | 402 kts | 19° |
| 2026-05-07 19:23 | 49.16203 | 9.28413 | 18683 ft | 405 kts | 19° |
| 2026-05-07 19:23 | 49.18840 | 9.29973 | 19232 ft | 406 kts | 17° |
| 2026-05-07 19:24 | 49.21581 | 9.31033 | 19745 ft | 406 kts | 7° |
| 2026-05-07 19:24 | 49.24389 | 9.31372 | 20246 ft | 405 kts | 357° |
| 2026-05-07 19:24 | 49.25645 | 9.31306 | 20468 ft | 406 kts | 355° |
| 2026-05-07 19:24 | 49.28443 | 9.31100 | 20959 ft | 408 kts | 355° |
| 2026-05-07 19:25 | 49.31314 | 9.30880 | 21455 ft | 410 kts | 355° |
| 2026-05-07 19:25 | 49.34175 | 9.30655 | 21944 ft | 412 kts | 355° |
| 2026-05-07 19:25 | 49.37023 | 9.30762 | 22400 ft | 417 kts | 3° |
| 2026-05-07 19:25 | 49.39931 | 9.31177 | 22890 ft | 419 kts | 4° |
| 2026-05-07 19:26 | 49.42839 | 9.31603 | 23360 ft | 421 kts | 4° |
| 2026-05-07 19:26 | 49.45764 | 9.32039 | 23670 ft | 422 kts | 4° |
| 2026-05-07 19:26 | 49.48690 | 9.32475 | 23907 ft | 423 kts | 4° |
| 2026-05-07 19:26 | 49.51632 | 9.32914 | 24038 ft | 424 kts | 4° |
| 2026-05-07 19:27 | 49.54567 | 9.33352 | 24072 ft | 424 kts | 4° |
| 2026-05-07 19:27 | 49.57509 | 9.33790 | 24072 ft | 424 kts | 4° |
| 2026-05-07 19:27 | 49.60446 | 9.34230 | 24075 ft | 424 kts | 4° |
| 2026-05-07 19:27 | 49.63385 | 9.34668 | 24070 ft | 424 kts | 4° |
| 2026-05-07 19:28 | 49.66326 | 9.35106 | 24072 ft | 425 kts | 4° |
| 2026-05-07 19:28 | 49.69268 | 9.35546 | 24074 ft | 425 kts | 4° |
| 2026-05-07 19:28 | 49.72210 | 9.35985 | 24073 ft | 425 kts | 4° |
| 2026-05-07 19:28 | 49.75143 | 9.36530 | 24073 ft | 426 kts | 9° |
| 2026-05-07 19:29 | 49.78033 | 9.37586 | 24073 ft | 426 kts | 12° |
| 2026-05-07 19:29 | 49.80911 | 9.38702 | 24073 ft | 426 kts | 12° |
| 2026-05-07 19:29 | 49.83792 | 9.39813 | 24074 ft | 426 kts | 12° |
| 2026-05-07 19:29 | 49.86633 | 9.40901 | 24070 ft | 426 kts | 12° |
| 2026-05-07 19:30 | 49.89513 | 9.42000 | 24075 ft | 426 kts | 12° |
| 2026-05-07 19:30 | 49.92393 | 9.43100 | 24076 ft | 426 kts | 12° |
| 2026-05-07 19:30 | 49.95270 | 9.44207 | 24079 ft | 426 kts | 12° |
| 2026-05-07 19:30 | 49.98152 | 9.45322 | 24079 ft | 426 kts | 12° |
| 2026-05-07 19:31 | 50.01032 | 9.46436 | 24079 ft | 426 kts | 12° |
| 2026-05-07 19:31 | 50.03912 | 9.47573 | 24085 ft | 427 kts | 15° |
| 2026-05-07 19:31 | 50.06695 | 9.49212 | 24080 ft | 428 kts | 24° |
| 2026-05-07 19:31 | 50.09281 | 9.51519 | 24079 ft | 430 kts | 33° |
| 2026-05-07 19:32 | 50.11710 | 9.54247 | 24079 ft | 430 kts | 34° |
| 2026-05-07 19:32 | 50.14139 | 9.56985 | 24084 ft | 431 kts | 34° |
| 2026-05-07 19:32 | 50.16541 | 9.59685 | 24083 ft | 430 kts | 34° |
| 2026-05-07 19:32 | 50.18971 | 9.62414 | 24085 ft | 430 kts | 34° |
| 2026-05-07 19:33 | 50.21397 | 9.65140 | 24087 ft | 430 kts | 34° |
| 2026-05-07 19:33 | 50.23832 | 9.67879 | 24086 ft | 430 kts | 34° |
| 2026-05-07 19:33 | 50.26256 | 9.70614 | 24090 ft | 430 kts | 34° |
| 2026-05-07 19:33 | 50.28681 | 9.73355 | 24089 ft | 430 kts | 34° |
| 2026-05-07 19:34 | 50.30292 | 9.75181 | 24095 ft | 430 kts | 34° |
| 2026-05-07 19:34 | 50.32718 | 9.77929 | 24181 ft | 433 kts | 34° |
| 2026-05-07 19:34 | 50.35163 | 9.80700 | 24587 ft | 434 kts | 34° |
| 2026-05-07 19:34 | 50.37623 | 9.83492 | 24987 ft | 436 kts | 34° |
| 2026-05-07 19:35 | 50.40070 | 9.86304 | 25352 ft | 438 kts | 37° |
| 2026-05-07 19:35 | 50.42329 | 9.89536 | 25720 ft | 441 kts | 45° |
| 2026-05-07 19:35 | 50.44440 | 9.93066 | 26086 ft | 443 kts | 45° |
| 2026-05-07 19:35 | 50.46561 | 9.96602 | 26460 ft | 445 kts | 46° |
| 2026-05-07 19:36 | 50.48696 | 10.00148 | 26813 ft | 447 kts | 45° |
| 2026-05-07 19:36 | 50.50835 | 10.03703 | 27160 ft | 449 kts | 45° |
| 2026-05-07 19:36 | 50.52985 | 10.07284 | 27487 ft | 451 kts | 46° |
| 2026-05-07 19:36 | 50.55136 | 10.10873 | 27823 ft | 453 kts | 46° |
| 2026-05-07 19:37 | 50.57303 | 10.14492 | 28121 ft | 454 kts | 46° |
| 2026-05-07 19:37 | 50.59470 | 10.18116 | 28429 ft | 456 kts | 46° |
| 2026-05-07 19:37 | 50.61648 | 10.21764 | 28742 ft | 458 kts | 46° |
| 2026-05-07 19:37 | 50.63826 | 10.25435 | 29042 ft | 459 kts | 47° |
| 2026-05-07 19:38 | 50.65779 | 10.29425 | 29423 ft | 460 kts | 56° |
| 2026-05-07 19:38 | 50.67373 | 10.33795 | 29859 ft | 459 kts | 61° |
| 2026-05-07 19:38 | 50.68884 | 10.38212 | 30281 ft | 458 kts | 61° |
| 2026-05-07 19:38 | 50.70402 | 10.42628 | 30629 ft | 457 kts | 61° |
| 2026-05-07 19:39 | 50.71899 | 10.46976 | 30939 ft | 457 kts | 61° |
| 2026-05-07 19:39 | 50.73414 | 10.51379 | 31260 ft | 457 kts | 61° |
| 2026-05-07 19:39 | 50.74932 | 10.55797 | 31578 ft | 457 kts | 61° |
| 2026-05-07 19:39 | 50.76446 | 10.60209 | 31896 ft | 457 kts | 61° |
| 2026-05-07 19:40 | 50.77955 | 10.64633 | 32215 ft | 458 kts | 61° |
| 2026-05-07 19:40 | 50.79458 | 10.69068 | 32533 ft | 458 kts | 61° |
| 2026-05-07 19:40 | 50.81096 | 10.73365 | 32838 ft | 457 kts | 53° |
| 2026-05-07 19:40 | 50.82934 | 10.77474 | 33067 ft | 458 kts | 53° |
| 2026-05-07 19:41 | 50.86628 | 10.85695 | 33108 ft | 458 kts | 53° |
| 2026-05-07 19:41 | 50.90326 | 10.93920 | 33111 ft | 459 kts | 53° |
| 2026-05-07 19:42 | 50.94024 | 11.02184 | 33111 ft | 459 kts | 54° |
| 2026-05-07 19:42 | 50.97708 | 11.10463 | 33111 ft | 459 kts | 54° |
| 2026-05-07 19:43 | 51.01358 | 11.18703 | 33106 ft | 459 kts | 54° |
| 2026-05-07 19:43 | 51.05017 | 11.26999 | 33092 ft | 459 kts | 54° |
| 2026-05-07 19:44 | 51.08684 | 11.35314 | 33091 ft | 458 kts | 54° |
| 2026-05-07 19:44 | 51.10519 | 11.39471 | 32746 ft | 460 kts | 54° |
| 2026-05-07 19:44 | 51.12349 | 11.43633 | 32213 ft | 459 kts | 54° |
| 2026-05-07 19:45 | 51.14170 | 11.47793 | 31693 ft | 457 kts | 54° |
| 2026-05-07 19:45 | 51.15987 | 11.51954 | 31184 ft | 456 kts | 54° |
| 2026-05-07 19:45 | 51.17794 | 11.56099 | 30674 ft | 455 kts | 54° |
| 2026-05-07 19:45 | 51.19597 | 11.60237 | 30187 ft | 454 kts | 54° |
| 2026-05-07 19:46 | 51.21395 | 11.64369 | 29606 ft | 454 kts | 54° |
| 2026-05-07 19:46 | 51.23193 | 11.68507 | 29044 ft | 455 kts | 54° |
| 2026-05-07 19:46 | 51.25001 | 11.72671 | 28482 ft | 457 kts | 54° |
| 2026-05-07 19:46 | 51.26817 | 11.76851 | 27939 ft | 459 kts | 54° |
| 2026-05-07 19:47 | 51.28637 | 11.81042 | 27399 ft | 460 kts | 54° |
| 2026-05-07 19:47 | 51.30453 | 11.85240 | 26868 ft | 458 kts | 54° |
| 2026-05-07 19:47 | 51.32254 | 11.89418 | 26368 ft | 455 kts | 54° |
| 2026-05-07 19:47 | 51.34037 | 11.93572 | 25842 ft | 451 kts | 54° |
| 2026-05-07 19:48 | 51.35805 | 11.97698 | 25342 ft | 448 kts | 54° |
| 2026-05-07 19:48 | 51.37560 | 12.01793 | 24842 ft | 445 kts | 54° |
| 2026-05-07 19:48 | 51.39308 | 12.05866 | 24375 ft | 441 kts | 54° |
| 2026-05-07 19:48 | 51.41037 | 12.09900 | 23899 ft | 437 kts | 53° |
| 2026-05-07 19:49 | 51.42743 | 12.13882 | 23391 ft | 430 kts | 53° |
| 2026-05-07 19:49 | 51.44421 | 12.17813 | 22832 ft | 422 kts | 54° |
| 2026-05-07 19:49 | 51.46060 | 12.21663 | 22313 ft | 415 kts | 54° |
| 2026-05-07 19:49 | 51.47655 | 12.25419 | 21784 ft | 409 kts | 54° |
| 2026-05-07 19:50 | 51.49242 | 12.29159 | 21278 ft | 402 kts | 54° |
| 2026-05-07 19:50 | 51.50792 | 12.32816 | 21077 ft | 389 kts | 54° |
| 2026-05-07 19:50 | 51.52274 | 12.36321 | 21108 ft | 370 kts | 54° |
| 2026-05-07 19:50 | 51.53686 | 12.39668 | 21107 ft | 354 kts | 54° |
| 2026-05-07 19:51 | 51.55037 | 12.42874 | 21106 ft | 341 kts | 54° |
| 2026-05-07 19:51 | 51.56360 | 12.46012 | 21100 ft | 337 kts | 54° |
| 2026-05-07 19:51 | 51.57671 | 12.49117 | 21102 ft | 336 kts | 54° |
| 2026-05-07 19:51 | 51.58984 | 12.52224 | 21096 ft | 336 kts | 54° |
| 2026-05-07 19:52 | 51.60295 | 12.55335 | 21061 ft | 335 kts | 54° |
| 2026-05-07 19:52 | 51.61592 | 12.58420 | 20679 ft | 332 kts | 54° |
| 2026-05-07 19:52 | 51.62881 | 12.61488 | 20275 ft | 330 kts | 54° |
| 2026-05-07 19:52 | 51.64157 | 12.64533 | 19893 ft | 328 kts | 54° |
| 2026-05-07 19:53 | 51.65430 | 12.67575 | 19482 ft | 326 kts | 55° |
| 2026-05-07 19:53 | 51.66694 | 12.70602 | 19108 ft | 325 kts | 55° |
| 2026-05-07 19:53 | 51.67950 | 12.73615 | 18746 ft | 324 kts | 55° |
| 2026-05-07 19:53 | 51.69200 | 12.76621 | 18380 ft | 322 kts | 56° |
| 2026-05-07 19:54 | 51.70447 | 12.79617 | 17983 ft | 321 kts | 56° |
| 2026-05-07 19:54 | 51.71687 | 12.82597 | 17598 ft | 319 kts | 56° |
| 2026-05-07 19:54 | 51.72919 | 12.85558 | 17222 ft | 317 kts | 56° |
| 2026-05-07 19:54 | 51.74143 | 12.88506 | 16853 ft | 316 kts | 56° |
| 2026-05-07 19:55 | 51.75360 | 12.91444 | 16503 ft | 314 kts | 56° |
| 2026-05-07 19:55 | 51.76569 | 12.94364 | 16149 ft | 312 kts | 56° |
| 2026-05-07 19:55 | 51.77775 | 12.97276 | 15812 ft | 311 kts | 56° |
| 2026-05-07 19:55 | 51.78973 | 13.00167 | 15483 ft | 309 kts | 56° |
| 2026-05-07 19:56 | 51.80166 | 13.03058 | 15132 ft | 308 kts | 56° |
| 2026-05-07 19:56 | 51.81351 | 13.05931 | 14801 ft | 307 kts | 56° |
| 2026-05-07 19:56 | 51.82514 | 13.08758 | 14481 ft | 306 kts | 56° |
| 2026-05-07 19:56 | 51.83689 | 13.11614 | 14147 ft | 305 kts | 56° |
| 2026-05-07 19:57 | 51.84858 | 13.14462 | 13860 ft | 303 kts | 57° |
| 2026-05-07 19:57 | 51.86020 | 13.17301 | 13504 ft | 302 kts | 57° |
| 2026-05-07 19:57 | 51.87177 | 13.20132 | 13163 ft | 300 kts | 57° |
| 2026-05-07 19:57 | 51.88324 | 13.22937 | 12832 ft | 298 kts | 57° |
| 2026-05-07 19:58 | 51.89465 | 13.25724 | 12488 ft | 296 kts | 57° |
| 2026-05-07 19:58 | 51.90601 | 13.28498 | 12125 ft | 295 kts | 57° |
| 2026-05-07 19:58 | 51.91733 | 13.31268 | 11761 ft | 295 kts | 57° |
| 2026-05-07 19:58 | 51.92860 | 13.34028 | 11418 ft | 293 kts | 57° |
| 2026-05-07 19:59 | 51.93984 | 13.36784 | 11079 ft | 291 kts | 57° |
| 2026-05-07 19:59 | 51.95095 | 13.39516 | 10744 ft | 290 kts | 57° |
| 2026-05-07 19:59 | 51.96201 | 13.42238 | 10406 ft | 288 kts | 57° |
| 2026-05-07 19:59 | 51.97301 | 13.44949 | 10071 ft | 286 kts | 57° |
| 2026-05-07 20:00 | 51.98579 | 13.47395 | 9711 ft | 284 kts | 39° |
| 2026-05-07 20:00 | 52.00276 | 13.48993 | 9355 ft | 282 kts | 20° |
| 2026-05-07 20:00 | 52.02190 | 13.49571 | 8997 ft | 280 kts | 0° |
| 2026-05-07 20:00 | 52.04105 | 13.49080 | 8621 ft | 280 kts | 341° |
| 2026-05-07 20:01 | 52.05815 | 13.47586 | 8236 ft | 280 kts | 322° |
| 2026-05-07 20:01 | 52.07147 | 13.45364 | 7976 ft | 274 kts | 310° |
| 2026-05-07 20:01 | 52.08308 | 13.42977 | 7854 ft | 263 kts | 308° |
| 2026-05-07 20:01 | 52.09374 | 13.40633 | 7713 ft | 253 kts | 307° |
| 2026-05-07 20:02 | 52.10239 | 13.38701 | 7525 ft | 248 kts | 307° |
| 2026-05-07 20:02 | 52.11253 | 13.36445 | 7195 ft | 247 kts | 308° |
| 2026-05-07 20:02 | 52.12273 | 13.34200 | 6872 ft | 246 kts | 308° |
| 2026-05-07 20:02 | 52.13285 | 13.31986 | 6668 ft | 243 kts | 309° |
| 2026-05-07 20:03 | 52.14304 | 13.29764 | 6555 ft | 245 kts | 309° |
| 2026-05-07 20:03 | 52.15329 | 13.27538 | 6422 ft | 245 kts | 309° |
| 2026-05-07 20:03 | 52.16352 | 13.25312 | 6287 ft | 245 kts | 309° |
| 2026-05-07 20:03 | 52.17371 | 13.23094 | 6154 ft | 244 kts | 308° |
| 2026-05-07 20:04 | 52.18161 | 13.20649 | 6036 ft | 245 kts | 288° |
| 2026-05-07 20:04 | 52.18396 | 13.17903 | 5893 ft | 245 kts | 268° |
| 2026-05-07 20:04 | 52.18047 | 13.15197 | 5550 ft | 245 kts | 249° |
| 2026-05-07 20:04 | 52.17418 | 13.12655 | 5330 ft | 238 kts | 248° |
| 2026-05-07 20:05 | 52.16816 | 13.10203 | 5055 ft | 235 kts | 249° |
| 2026-05-07 20:05 | 52.16214 | 13.07738 | 4759 ft | 233 kts | 249° |
| 2026-05-07 20:05 | 52.15616 | 13.05281 | 4442 ft | 232 kts | 249° |
| 2026-05-07 20:05 | 52.15025 | 13.02835 | 4119 ft | 231 kts | 249° |
| 2026-05-07 20:06 | 52.14506 | 13.00370 | 3814 ft | 230 kts | 263° |
| 2026-05-07 20:06 | 52.14696 | 12.97861 | 3504 ft | 223 kts | 298° |
| 2026-05-07 20:06 | 52.15683 | 12.96017 | 3180 ft | 216 kts | 333° |
| 2026-05-07 20:06 | 52.17043 | 12.95056 | 3001 ft | 214 kts | 343° |
| 2026-05-07 20:07 | 52.18466 | 12.94285 | 2995 ft | 216 kts | 346° |
| 2026-05-07 20:07 | 52.19935 | 12.94038 | 2995 ft | 212 kts | 11° |
| 2026-05-07 20:07 | 52.21306 | 12.94828 | 2996 ft | 209 kts | 34° |
| 2026-05-07 20:07 | 52.22337 | 12.96474 | 2996 ft | 208 kts | 58° |
| 2026-05-07 20:08 | 52.22931 | 12.98624 | 2996 ft | 209 kts | 68° |
| 2026-05-07 20:08 | 52.23464 | 13.00824 | 2994 ft | 209 kts | 68° |
| 2026-05-07 20:08 | 52.23999 | 13.03029 | 2999 ft | 209 kts | 68° |
| 2026-05-07 20:08 | 52.24534 | 13.05231 | 2999 ft | 209 kts | 68° |
| 2026-05-07 20:09 | 52.25070 | 13.07436 | 3000 ft | 209 kts | 68° |
| 2026-05-07 20:09 | 52.25604 | 13.09639 | 3002 ft | 209 kts | 68° |
| 2026-05-07 20:09 | 52.26131 | 13.11814 | 3001 ft | 209 kts | 68° |
| 2026-05-07 20:10 | 52.27184 | 13.16172 | 3007 ft | 209 kts | 68° |
| 2026-05-07 20:10 | 52.27355 | 13.16875 | 3005 ft | 209 kts | 68° |
| 2026-05-07 20:10 | 52.27888 | 13.19086 | 3007 ft | 210 kts | 68° |
| 2026-05-07 20:10 | 52.28424 | 13.21309 | 3007 ft | 210 kts | 68° |
| 2026-05-07 20:11 | 52.28718 | 13.22528 | 3008 ft | 210 kts | 68° |
| 2026-05-07 20:11 | 52.29126 | 13.24222 | 3000 ft | 210 kts | 68° |
| 2026-05-07 20:11 | 52.29659 | 13.26440 | 2833 ft | 208 kts | 68° |
| 2026-05-07 20:11 | 52.30185 | 13.28626 | 2576 ft | 205 kts | 68° |
| 2026-05-07 20:12 | 52.30692 | 13.30740 | 2299 ft | 195 kts | 68° |
| 2026-05-07 20:12 | 52.31175 | 13.32753 | 2048 ft | 186 kts | 68° |
| 2026-05-07 20:12 | 52.31628 | 13.34646 | 1801 ft | 172 kts | 68° |
| 2026-05-07 20:12 | 52.32051 | 13.36411 | 1572 ft | 160 kts | 68° |
| 2026-05-07 20:13 | 52.32443 | 13.38049 | 1351 ft | 150 kts | 68° |
| 2026-05-07 20:13 | 52.32805 | 13.39564 | 1166 ft | 139 kts | 68° |
| 2026-05-07 20:13 | 52.33152 | 13.41017 | 959 ft | 136 kts | 68° |
| 2026-05-07 20:13 | 52.33498 | 13.42465 | 770 ft | 137 kts | 68° |
| 2026-05-07 20:14 | 52.33848 | 13.43929 | 575 ft | 139 kts | 68° |
| 2026-05-07 20:14 | 52.34202 | 13.45413 | 402 ft | 141 kts | 68° |
| 2026-05-07 20:14 | 52.34560 | 13.46911 | 213 ft | 141 kts | 68° |
| 2026-05-07 20:14 | 52.34889 | 13.48299 | 160 ft | 111 kts | 69° |
| 2026-05-07 20:15 | 52.35106 | 13.49210 | 158 ft | 61 kts | 69° |
| 2026-05-07 20:15 | 52.35217 | 13.49678 | 157 ft | 27 kts | 69° |
| 2026-05-07 20:15 | 52.35325 | 13.49927 | 154 ft | 28 kts | 43° |
| 2026-05-07 20:15 | 52.35433 | 13.50070 | 151 ft | 14 kts | 39° |
| 2026-05-07 20:16 | 52.35461 | 13.50108 | 150 ft | 0 kts | 39° |
| 2026-05-07 20:17 | 52.35466 | 13.50114 | 150 ft | 5 kts | 39° |
| 2026-05-07 20:17 | 52.35531 | 13.50199 | 147 ft | 13 kts | 38° |
| 2026-05-07 20:17 | 52.35593 | 13.50286 | 148 ft | 11 kts | 51° |
| 2026-05-07 20:17 | 52.35625 | 13.50404 | 148 ft | 16 kts | 68° |
| 2026-05-07 20:18 | 52.35676 | 13.50621 | 148 ft | 22 kts | 68° |
| 2026-05-07 20:18 | 52.35714 | 13.50778 | 149 ft | 10 kts | 68° |
| 2026-05-07 20:18 | 52.35756 | 13.50828 | 150 ft | 7 kts | 2° |
| 2026-05-07 20:18 | 52.35803 | 13.50805 | 151 ft | 6 kts | 339° |
| 2026-05-07 20:19 | 52.35831 | 13.50787 | 152 ft | 3 kts | 339° |
| 2026-05-07 20:19 | 52.35844 | 13.50779 | 152 ft | 2 kts | 338° |
| 2026-05-07 20:19 | 52.35891 | 13.50749 | 153 ft | 11 kts | 340° |
| 2026-05-07 20:19 | 52.35966 | 13.50703 | 153 ft | 12 kts | 339° |
| 2026-05-07 20:20 | 52.36043 | 13.50654 | 153 ft | 12 kts | 339° |
| 2026-05-07 20:20 | 52.36115 | 13.50608 | 155 ft | 11 kts | 339° |
| 2026-05-07 20:20 | 52.36170 | 13.50572 | 153 ft | 15 kts | 338° |
| 2026-05-07 20:20 | 52.36275 | 13.50506 | 153 ft | 17 kts | 339° |
| 2026-05-07 20:21 | 52.36380 | 13.50439 | 154 ft | 14 kts | 339° |
| 2026-05-07 20:21 | 52.36456 | 13.50392 | 153 ft | 6 kts | 339° |
| 2026-05-07 20:21 | 52.36471 | 13.50409 | 153 ft | 1 kts | 73° |
| 2026-05-07 20:21 | 52.36482 | 13.50434 | 154 ft | 6 kts | 53° |
| 2026-05-07 20:22 | 52.36498 | 13.50493 | 154 ft | 5 kts | 68° |
| 2026-05-07 20:22 | 52.36503 | 13.50512 | 154 ft | 1 kts | 68° |
| 2026-05-07 20:22 | 52.36503 | 13.50513 | 154 ft | 0 kts | 68° |